createdAt,value
2018-04-18T00:01:58.640Z,3.40
2018-04-18T00:04:25.228Z,3.50
2018-04-18T00:06:51.809Z,3.50
2018-04-18T00:09:18.403Z,3.57
2018-04-18T00:11:45.014Z,3.40
2018-04-18T00:14:11.591Z,3.60
2018-04-18T00:16:38.180Z,3.60
2018-04-18T00:19:04.753Z,3.50
2018-04-18T00:21:31.348Z,4.40
2018-04-18T00:23:57.928Z,3.53
2018-04-18T00:26:24.503Z,3.53
2018-04-18T00:28:51.109Z,4.30
2018-04-18T00:31:17.705Z,4.30
2018-04-18T00:33:44.284Z,3.87
2018-04-18T00:36:10.864Z,3.67
2018-04-18T00:38:37.456Z,3.70
2018-04-18T00:41:04.036Z,3.70
2018-04-18T00:43:30.612Z,3.70
2018-04-18T00:45:57.229Z,3.90
2018-04-18T00:48:23.797Z,3.67
2018-04-18T00:50:50.388Z,3.53
2018-04-18T00:53:16.971Z,3.73
2018-04-18T00:55:43.563Z,3.30
2018-04-18T00:58:10.139Z,3.60
2018-04-18T01:00:36.724Z,3.70
2018-04-18T01:03:03.320Z,3.63
2018-04-18T01:05:29.895Z,4.17
2018-04-18T01:07:56.490Z,3.97
2018-04-18T01:10:23.068Z,3.87
2018-04-18T01:12:49.665Z,3.70
2018-04-18T01:15:16.248Z,3.93
2018-04-18T01:17:42.833Z,3.50
2018-04-18T01:20:09.433Z,3.93
2018-04-18T01:22:36.016Z,4.10
2018-04-18T01:25:02.609Z,3.93
2018-04-18T01:27:29.194Z,3.97
2018-04-18T01:29:55.807Z,4.47
2018-04-18T01:32:22.389Z,4.40
2018-04-18T01:34:48.960Z,4.10
2018-04-18T01:37:15.556Z,4.13
2018-04-18T01:39:42.132Z,4.40
2018-04-18T01:42:08.719Z,4.27
2018-04-18T01:44:35.296Z,4.67
2018-04-18T01:47:01.905Z,4.43
2018-04-18T01:49:31.327Z,4.43
2018-04-18T01:51:57.906Z,4.47
2018-04-18T01:54:24.496Z,4.70
2018-04-18T01:56:51.075Z,4.53
2018-04-18T01:59:17.695Z,4.60
2018-04-18T02:01:44.276Z,4.60
2018-04-18T02:04:10.855Z,4.20
2018-04-18T02:06:37.433Z,4.70
2018-04-18T02:09:04.012Z,4.63
2018-04-18T02:11:30.600Z,4.20
2018-04-18T02:13:57.184Z,5.20
2018-04-18T02:16:23.788Z,4.93
2018-04-18T02:18:50.367Z,5.10
2018-04-18T02:21:16.984Z,4.77
2018-04-18T02:23:43.577Z,5.20
2018-04-18T02:26:10.151Z,4.73
2018-04-18T02:28:36.728Z,4.90
2018-04-18T02:31:03.315Z,4.60
2018-04-18T02:33:29.888Z,4.87
2018-04-18T02:35:56.480Z,4.93
2018-04-18T02:38:23.072Z,4.57
2018-04-18T02:40:49.652Z,4.90
2018-04-18T02:43:16.235Z,5.07
2018-04-18T02:45:42.812Z,4.60
2018-04-18T02:48:09.411Z,5.30
2018-04-18T02:50:37.713Z,4.57
2018-04-18T02:53:04.287Z,4.70
2018-04-18T02:55:30.880Z,4.30
2018-04-18T02:57:57.456Z,4.80
2018-04-18T03:00:24.037Z,5.20
2018-04-18T03:02:50.612Z,4.73
2018-04-18T03:05:17.484Z,5.50
2018-04-18T03:07:44.061Z,5.67
2018-04-18T03:10:10.653Z,5.10
2018-04-18T03:12:37.236Z,5.13
2018-04-18T03:15:03.823Z,5.73
2018-04-18T03:17:30.426Z,4.73
2018-04-18T03:19:56.992Z,5.50
2018-04-18T03:22:23.632Z,4.97
2018-04-18T03:24:50.208Z,4.80
2018-04-18T03:27:16.784Z,4.80
2018-04-18T03:29:43.372Z,4.70
2018-04-18T03:32:09.948Z,4.70
2018-04-18T03:34:36.544Z,5.20
2018-04-18T03:37:03.125Z,5.03
2018-04-18T03:39:29.732Z,4.90
2018-04-18T03:41:56.314Z,5.30
2018-04-18T03:44:22.888Z,5.17
2018-04-18T03:46:49.476Z,5.07
2018-04-18T03:49:16.052Z,5.07
2018-04-18T03:51:42.644Z,4.83
2018-04-18T03:54:09.223Z,5.03
2018-04-18T03:56:35.813Z,4.90
2018-04-18T03:59:02.397Z,5.20
2018-04-18T04:01:28.971Z,4.97
2018-04-18T04:03:55.561Z,4.43
2018-04-18T04:06:22.137Z,5.20
2018-04-18T04:08:48.715Z,5.27
2018-04-18T04:11:15.296Z,5.20
2018-04-18T04:13:41.929Z,5.57
2018-04-18T04:16:14.301Z,5.13
2018-04-18T04:18:46.703Z,5.10
2018-04-18T04:21:19.228Z,4.80
2018-04-18T04:23:51.839Z,4.83
2018-04-18T04:26:18.426Z,5.60
2018-04-18T04:28:45.007Z,5.57
2018-04-18T04:31:11.592Z,4.87
2018-04-18T04:33:38.483Z,5.40
2018-04-18T04:36:05.048Z,4.93
2018-04-18T04:38:31.636Z,5.50
2018-04-18T04:40:58.233Z,5.33
2018-04-18T04:43:24.881Z,5.10
2018-04-18T04:45:51.444Z,5.27
2018-04-18T04:48:18.033Z,5.10
2018-04-18T04:50:44.620Z,5.20
2018-04-18T04:53:11.208Z,4.70
2018-04-18T04:55:37.792Z,5.30
2018-04-18T04:58:04.388Z,5.37
2018-04-18T05:00:30.972Z,5.10
2018-04-18T05:02:57.547Z,5.50
2018-04-18T05:05:24.132Z,5.40
2018-04-18T05:07:50.708Z,4.80
2018-04-18T05:10:17.319Z,5.17
2018-04-18T05:12:43.878Z,5.13
2018-04-18T05:15:10.497Z,5.03
2018-04-18T05:17:37.072Z,5.67
2018-04-18T05:20:03.658Z,5.20
2018-04-18T05:22:30.244Z,5.13
2018-04-18T05:24:56.843Z,5.50
2018-04-18T05:27:23.432Z,5.20
2018-04-18T05:29:50.017Z,5.20
2018-04-18T05:32:16.661Z,5.40
2018-04-18T05:34:43.301Z,5.60
2018-04-18T05:37:09.872Z,5.90
2018-04-18T05:39:36.463Z,5.70
2018-04-18T05:42:03.044Z,5.93
2018-04-18T05:44:29.636Z,6.00
2018-04-18T05:46:57.255Z,6.00
2018-04-18T05:49:24.044Z,5.13
2018-04-18T05:51:50.626Z,5.87
2018-04-18T05:54:17.203Z,5.20
2018-04-18T05:56:43.800Z,12.90
2018-04-18T05:59:10.395Z,30.50
2018-04-18T06:01:36.987Z,9.87
2018-04-18T06:04:03.572Z,5.80
2018-04-18T06:06:30.172Z,5.67
2018-04-18T06:08:56.744Z,5.57
2018-04-18T06:11:23.328Z,5.50
2018-04-18T06:13:49.915Z,6.00
2018-04-18T06:16:16.497Z,5.60
2018-04-18T06:18:43.081Z,5.93
2018-04-18T06:21:09.660Z,5.67
2018-04-18T06:23:36.252Z,6.37
2018-04-18T06:26:02.835Z,5.57
2018-04-18T06:28:29.438Z,6.00
2018-04-18T06:30:56.008Z,5.50
2018-04-18T06:33:22.588Z,6.07
2018-04-18T06:35:49.180Z,5.77
2018-04-18T06:38:15.752Z,5.70
2018-04-18T06:40:42.348Z,5.53
2018-04-18T06:43:08.928Z,6.30
2018-04-18T06:45:35.510Z,5.90
2018-04-18T06:48:02.097Z,5.83
2018-04-18T06:50:28.683Z,5.87
2018-04-18T06:52:55.272Z,5.90
2018-04-18T06:55:21.864Z,5.90
2018-04-18T06:57:48.450Z,6.10
2018-04-18T07:00:15.030Z,6.03
2018-04-18T07:02:41.603Z,6.00
2018-04-18T07:05:08.204Z,6.40
2018-04-18T07:07:34.787Z,6.30
2018-04-18T07:10:01.385Z,5.97
2018-04-18T07:12:27.964Z,6.20
2018-04-18T07:14:54.559Z,5.70
2018-04-18T07:17:21.142Z,6.40
2018-04-18T07:19:47.721Z,6.20
2018-04-18T07:22:14.322Z,6.20
2018-04-18T07:24:40.895Z,6.53
2018-04-18T07:27:07.487Z,6.50
2018-04-18T07:29:34.069Z,6.70
2018-04-18T07:32:00.680Z,6.30
2018-04-18T07:34:27.264Z,6.83
2018-04-18T07:36:53.912Z,6.30
2018-04-18T07:39:20.492Z,7.00
2018-04-18T07:41:47.067Z,7.17
2018-04-18T07:44:13.668Z,7.47
2018-04-18T07:46:40.288Z,7.83
2018-04-18T07:49:06.864Z,7.50
2018-04-18T07:51:33.449Z,7.37
2018-04-18T07:54:00.057Z,7.37
2018-04-18T07:56:26.628Z,7.10
2018-04-18T07:58:53.216Z,7.50
2018-04-18T08:01:19.824Z,6.70
2018-04-18T08:03:46.402Z,7.60
2018-04-18T08:06:12.992Z,7.30
2018-04-18T08:08:39.580Z,6.60
2018-04-18T08:11:06.164Z,6.77
2018-04-18T08:13:32.760Z,6.37
2018-04-18T08:15:59.347Z,5.93
2018-04-18T08:18:25.935Z,5.67
2018-04-18T08:20:52.536Z,5.70
2018-04-18T08:23:19.119Z,5.50
2018-04-18T08:25:45.704Z,6.30
2018-04-18T08:28:12.296Z,6.40
2018-04-18T08:30:38.894Z,6.30
2018-04-18T08:33:05.476Z,6.63
2018-04-18T08:35:32.052Z,5.80
2018-04-18T08:37:58.640Z,6.63
2018-04-18T08:40:25.235Z,7.20
2018-04-18T08:42:51.823Z,6.93
2018-04-18T08:45:18.412Z,8.30
2018-04-18T08:47:44.996Z,6.80
2018-04-18T08:50:11.604Z,6.20
2018-04-18T08:52:38.195Z,6.80
2018-04-18T08:55:04.771Z,6.67
2018-04-18T08:57:31.363Z,7.03
2018-04-18T08:59:57.950Z,7.20
2018-04-18T09:02:24.544Z,7.63
2018-04-18T09:04:51.142Z,7.47
2018-04-18T09:07:17.735Z,7.67
2018-04-18T09:09:44.374Z,7.03
2018-04-18T09:12:10.899Z,7.30
2018-04-18T09:14:37.489Z,7.60
2018-04-18T09:17:04.068Z,7.17
2018-04-18T09:19:30.655Z,7.87
2018-04-18T09:21:57.231Z,8.20
2018-04-18T09:24:23.857Z,7.90
2018-04-18T09:26:50.452Z,8.47
2018-04-18T09:29:17.036Z,7.37
2018-04-18T09:31:43.621Z,7.50
2018-04-18T09:34:10.207Z,8.83
2018-04-18T09:36:36.792Z,9.00
2018-04-18T09:39:03.371Z,9.80
2018-04-18T09:41:29.975Z,9.70
2018-04-18T09:43:56.552Z,9.00
2018-04-18T09:46:23.180Z,9.47
2018-04-18T09:48:49.765Z,9.27
2018-04-18T09:51:16.364Z,8.93
2018-04-18T09:53:42.948Z,7.40
2018-04-18T09:56:09.524Z,8.27
2018-04-18T09:58:36.112Z,7.53
2018-04-18T10:01:02.696Z,7.10
2018-04-18T10:03:29.290Z,7.33
2018-04-18T10:05:55.868Z,6.80
2018-04-18T10:08:22.462Z,6.53
2018-04-18T10:10:49.040Z,6.70
2018-04-18T10:13:15.619Z,6.13
2018-04-18T10:15:42.208Z,4.97
2018-04-18T10:18:08.792Z,5.20
2018-04-18T10:20:35.380Z,4.63
2018-04-18T10:23:01.998Z,4.20
2018-04-18T10:25:28.549Z,3.67
2018-04-18T10:27:55.128Z,4.93
2018-04-18T10:30:21.723Z,4.80
2018-04-18T10:32:48.312Z,5.20
2018-04-18T10:35:14.891Z,4.90
2018-04-18T10:37:41.490Z,4.60
2018-04-18T10:40:08.064Z,3.87
2018-04-18T10:42:34.664Z,4.30
2018-04-18T10:45:01.240Z,4.93
2018-04-18T10:47:27.816Z,4.33
2018-04-18T10:49:54.476Z,4.10
2018-04-18T10:52:21.061Z,4.33
2018-04-18T10:54:47.652Z,3.70
2018-04-18T10:57:14.338Z,3.53
2018-04-18T10:59:40.899Z,4.00
2018-04-18T11:02:07.477Z,3.83
2018-04-18T11:04:34.069Z,3.77
2018-04-18T11:07:00.643Z,4.13
2018-04-18T11:09:27.228Z,3.63
2018-04-18T11:11:53.833Z,3.60
2018-04-18T11:14:20.425Z,3.37
2018-04-18T11:16:47.020Z,3.90
2018-04-18T11:19:13.588Z,3.80
2018-04-18T11:21:40.188Z,3.37
2018-04-18T11:24:06.756Z,3.40
2018-04-18T11:26:33.363Z,3.20
2018-04-18T11:28:59.947Z,4.37
2018-04-18T11:31:26.520Z,3.20
2018-04-18T11:33:53.116Z,3.50
2018-04-18T11:36:19.697Z,2.70
2018-04-18T11:38:46.280Z,3.83
2018-04-18T11:41:12.864Z,3.47
2018-04-18T11:43:39.467Z,3.13
2018-04-18T11:46:06.050Z,3.90
2018-04-18T11:48:32.624Z,3.90
2018-04-18T11:50:59.741Z,3.93
2018-04-18T11:53:26.323Z,3.87
2018-04-18T11:55:52.911Z,3.70
2018-04-18T11:58:19.491Z,3.50
2018-04-18T12:00:46.075Z,3.07
2018-04-18T12:03:12.666Z,3.80
2018-04-18T12:05:39.248Z,3.63
2018-04-18T12:08:05.824Z,3.23
2018-04-18T12:10:32.400Z,3.07
2018-04-18T12:12:58.992Z,2.87
2018-04-18T12:15:25.576Z,2.90
2018-04-18T12:17:52.183Z,2.93
2018-04-18T12:20:18.751Z,3.20
2018-04-18T12:22:45.340Z,3.23
2018-04-18T12:25:11.913Z,2.77
2018-04-18T12:27:38.512Z,3.03
2018-04-18T12:30:05.088Z,3.27
2018-04-18T12:32:31.676Z,3.00
2018-04-18T12:34:58.252Z,3.10
2018-04-18T12:37:24.865Z,2.80
2018-04-18T12:39:51.457Z,3.10
2018-04-18T12:42:18.036Z,3.03
2018-04-18T12:44:44.744Z,2.60
2018-04-18T12:47:11.323Z,2.30
2018-04-18T12:49:37.896Z,2.60
2018-04-18T12:52:04.479Z,3.70
2018-04-18T12:54:31.072Z,2.97
2018-04-18T12:56:57.671Z,2.40
2018-04-18T12:59:24.252Z,2.50
2018-04-18T13:01:50.955Z,2.67
2018-04-18T13:04:17.516Z,2.80
2018-04-18T13:06:44.134Z,2.40
2018-04-18T13:09:10.716Z,3.00
2018-04-18T13:11:37.292Z,2.70
2018-04-18T13:14:03.879Z,2.90
2018-04-18T13:16:30.462Z,2.97
2018-04-18T13:18:57.098Z,2.90
2018-04-18T13:21:23.659Z,2.73
2018-04-18T13:23:50.255Z,2.90
2018-04-18T13:26:16.836Z,2.90
2018-04-18T13:28:43.433Z,2.53
2018-04-18T13:31:10.008Z,2.47
2018-04-18T13:33:36.600Z,2.40
2018-04-18T13:36:03.182Z,3.07
2018-04-18T13:38:29.760Z,2.40
2018-04-18T13:40:56.357Z,2.80
2018-04-18T13:43:22.951Z,2.83
2018-04-18T13:45:49.542Z,3.00
2018-04-18T13:48:16.126Z,2.73
2018-04-18T13:50:42.706Z,3.17
2018-04-18T13:53:09.287Z,3.10
2018-04-18T13:55:35.933Z,2.50
2018-04-18T13:58:02.509Z,2.90
2018-04-18T14:00:29.084Z,2.50
2018-04-18T14:02:55.671Z,2.83
2018-04-18T14:05:22.303Z,2.47
2018-04-18T14:07:48.953Z,2.47
2018-04-18T14:10:15.490Z,2.17
2018-04-18T14:12:42.072Z,2.97
2018-04-18T14:15:08.652Z,2.50
2018-04-18T14:17:35.255Z,2.30
2018-04-18T14:20:01.837Z,2.43
2018-04-18T14:22:28.421Z,2.57
2018-04-18T14:24:55.021Z,2.30
2018-04-18T14:27:21.601Z,2.70
2018-04-18T14:29:48.192Z,2.67
2018-04-18T14:32:14.772Z,2.70
2018-04-18T14:34:41.352Z,2.80
2018-04-18T14:37:07.931Z,2.20
2018-04-18T14:39:34.529Z,2.30
2018-04-18T14:42:01.101Z,2.90
2018-04-18T14:44:27.680Z,2.77
2018-04-18T14:46:54.272Z,2.80
2018-04-18T14:49:20.856Z,2.70
2018-04-18T14:51:47.448Z,3.10
2018-04-18T14:54:14.020Z,3.17
2018-04-18T14:56:40.611Z,2.60
2018-04-18T14:59:07.184Z,2.63
2018-04-18T15:01:33.783Z,2.67
2018-04-18T15:04:00.363Z,3.00
2018-04-18T15:06:26.947Z,2.70
2018-04-18T15:08:53.540Z,3.10
2018-04-18T15:11:20.567Z,2.80
2018-04-18T15:13:47.152Z,2.83
2018-04-18T15:16:13.736Z,3.10
2018-04-18T15:18:40.320Z,2.77
2018-04-18T15:21:06.904Z,2.70
2018-04-18T15:23:33.509Z,2.97
2018-04-18T15:26:00.084Z,3.40
2018-04-18T15:28:26.679Z,3.00
2018-04-18T15:30:53.264Z,3.00
2018-04-18T15:33:19.856Z,3.23
2018-04-18T15:35:46.449Z,3.50
2018-04-18T15:38:13.021Z,3.30
2018-04-18T15:40:39.655Z,3.10
2018-04-18T15:43:06.219Z,3.50
2018-04-18T15:45:32.811Z,3.40
2018-04-18T15:47:59.392Z,3.20
2018-04-18T15:50:25.983Z,3.60
2018-04-18T15:52:52.569Z,4.07
2018-04-18T15:55:19.149Z,3.30
2018-04-18T15:57:45.788Z,3.10
2018-04-18T16:00:12.365Z,3.27
2018-04-18T16:02:38.956Z,3.23
2018-04-18T16:05:05.540Z,3.10
2018-04-18T16:07:32.210Z,3.17
2018-04-18T16:09:58.775Z,3.13
2018-04-18T16:12:25.368Z,3.50
2018-04-18T16:14:52.075Z,3.50
2018-04-18T16:17:18.658Z,3.70
2018-04-18T16:19:45.252Z,3.50
2018-04-18T16:22:11.832Z,3.27
2018-04-18T16:24:38.424Z,3.90
2018-04-18T16:27:04.999Z,2.97
2018-04-18T16:29:37.421Z,3.07
2018-04-18T16:32:04.006Z,3.20
2018-04-18T16:34:30.616Z,3.67
2018-04-18T16:36:57.196Z,3.47
2018-04-18T16:39:23.790Z,2.93
2018-04-18T16:41:50.402Z,3.13
2018-04-18T16:44:16.979Z,3.27
2018-04-18T16:46:43.564Z,3.00
2018-04-18T16:49:10.141Z,2.87
2018-04-18T16:51:36.744Z,13.13
2018-04-18T16:54:03.328Z,7.60
2018-04-18T16:56:29.912Z,3.33
2018-04-18T16:58:56.964Z,3.60
2018-04-18T17:01:23.569Z,2.80
2018-04-18T17:03:50.155Z,3.97
2018-04-18T17:06:16.738Z,3.40
2018-04-18T17:08:43.328Z,3.60
2018-04-18T17:11:09.954Z,3.13
2018-04-18T17:13:36.565Z,3.30
2018-04-18T17:16:03.191Z,3.20
2018-04-18T17:18:30.071Z,2.70
2018-04-18T17:20:56.628Z,2.80
2018-04-18T17:23:23.213Z,2.97
2018-04-18T17:25:49.805Z,4.07
2018-04-18T17:28:16.411Z,3.83
2018-04-18T17:30:42.988Z,3.30
2018-04-18T17:33:09.584Z,3.37
2018-04-18T17:35:36.178Z,3.13
2018-04-18T17:38:02.756Z,3.00
2018-04-18T17:40:29.391Z,3.60
2018-04-18T17:42:55.976Z,3.30
2018-04-18T17:45:22.559Z,3.90
2018-04-18T17:47:49.152Z,3.90
2018-04-18T17:50:15.732Z,3.10
2018-04-18T17:52:42.347Z,3.30
2018-04-18T17:55:08.928Z,3.10
2018-04-18T17:57:35.508Z,2.80
2018-04-18T18:00:02.100Z,3.00
2018-04-18T18:02:28.724Z,3.17
2018-04-18T18:04:55.311Z,3.47
2018-04-18T18:07:21.928Z,3.67
2018-04-18T18:09:48.528Z,3.30
2018-04-18T18:12:15.107Z,3.80
2018-04-18T18:14:41.706Z,3.77
2018-04-18T18:17:08.292Z,4.00
2018-04-18T18:19:34.912Z,4.27
2018-04-18T18:22:01.529Z,4.30
2018-04-18T18:24:28.137Z,3.93
2018-04-18T18:26:54.808Z,3.60
2018-04-18T18:29:21.381Z,3.50
2018-04-18T18:31:47.963Z,3.43
2018-04-18T18:34:14.539Z,3.20
2018-04-18T18:36:41.136Z,4.23
2018-04-18T18:39:07.727Z,3.63
2018-04-18T18:41:34.316Z,3.97
2018-04-18T18:44:00.900Z,3.43
2018-04-18T18:46:27.527Z,3.90
2018-04-18T18:48:54.106Z,3.53
2018-04-18T18:51:20.683Z,3.63
2018-04-18T18:53:47.278Z,3.47
2018-04-18T18:56:13.852Z,3.53
2018-04-18T18:58:40.486Z,5.53
2018-04-18T19:01:07.061Z,5.00
2018-04-18T19:03:33.648Z,4.87
2018-04-18T19:06:00.239Z,3.70
2018-04-18T19:08:26.832Z,3.13
2018-04-18T19:10:53.408Z,3.27
2018-04-18T19:13:20.004Z,4.50
2018-04-18T19:15:46.585Z,4.50
2018-04-18T19:18:13.177Z,3.33
2018-04-18T19:20:39.751Z,3.43
2018-04-18T19:23:06.331Z,3.07
2018-04-18T19:25:32.933Z,3.07
2018-04-18T19:27:59.508Z,3.33
2018-04-18T19:30:26.114Z,3.23
2018-04-18T19:32:52.704Z,2.83
2018-04-18T19:35:19.289Z,2.83
2018-04-18T19:37:45.861Z,2.70
2018-04-18T19:40:12.480Z,2.80
2018-04-18T19:42:39.059Z,3.03
2018-04-18T19:45:05.643Z,2.87
2018-04-18T19:47:32.241Z,2.97
2018-04-18T19:49:58.820Z,2.83
2018-04-18T19:52:25.409Z,3.17
2018-04-18T19:54:52.086Z,3.10
2018-04-18T19:57:18.660Z,3.07
2018-04-18T19:59:45.263Z,3.30
2018-04-18T20:02:11.844Z,3.33
2018-04-18T20:04:38.429Z,3.40
2018-04-18T20:07:05.008Z,3.10
2018-04-18T20:09:31.597Z,3.17
2018-04-18T20:11:58.171Z,3.30
2018-04-18T20:14:24.760Z,3.33
2018-04-18T20:16:51.363Z,3.00
2018-04-18T20:19:17.940Z,3.20
2018-04-18T20:21:44.532Z,3.43
2018-04-18T20:24:11.123Z,3.63
2018-04-18T20:26:37.707Z,3.30
2018-04-18T20:29:04.300Z,3.70
2018-04-18T20:31:30.877Z,3.53
2018-04-18T20:33:57.457Z,3.20
2018-04-18T20:36:24.049Z,3.67
2018-04-18T20:38:50.628Z,3.47
2018-04-18T20:41:17.216Z,3.40
2018-04-18T20:43:43.797Z,3.40
2018-04-18T20:46:10.383Z,3.90
2018-04-18T20:48:36.961Z,3.43
2018-04-18T20:51:03.556Z,3.10
2018-04-18T20:53:30.132Z,3.80
2018-04-18T20:55:56.724Z,3.80
2018-04-18T20:58:23.308Z,3.47
2018-04-18T21:00:49.945Z,3.63
2018-04-18T21:03:16.549Z,3.90
2018-04-18T21:05:43.135Z,4.00
2018-04-18T21:08:09.758Z,3.40
2018-04-18T21:10:36.336Z,3.63
2018-04-18T21:13:02.928Z,4.00
2018-04-18T21:15:29.518Z,3.70
2018-04-18T21:17:56.106Z,3.73
2018-04-18T21:20:22.717Z,3.83
2018-04-18T21:22:49.336Z,3.50
2018-04-18T21:25:15.912Z,3.70
2018-04-18T21:27:42.559Z,4.10
2018-04-18T21:30:09.143Z,3.77
2018-04-18T21:32:35.708Z,3.70
2018-04-18T21:35:02.297Z,3.70
2018-04-18T21:37:28.880Z,3.60
2018-04-18T21:39:55.476Z,3.70
2018-04-18T21:42:22.058Z,3.57
2018-04-18T21:44:48.648Z,3.70
2018-04-18T21:47:15.228Z,3.80
2018-04-18T21:49:41.812Z,3.60
2018-04-18T21:52:08.403Z,3.70
2018-04-18T21:54:34.981Z,3.97
2018-04-18T21:57:01.572Z,4.00
2018-04-18T21:59:28.152Z,3.90
2018-04-18T22:01:54.740Z,3.93
2018-04-18T22:04:21.318Z,4.33
2018-04-18T22:06:47.903Z,4.10
2018-04-18T22:09:14.484Z,3.63
2018-04-18T22:11:41.080Z,4.07
2018-04-18T22:14:07.694Z,3.63
2018-04-18T22:16:34.263Z,4.03
2018-04-18T22:19:00.851Z,3.50
2018-04-18T22:21:27.444Z,4.17
2018-04-18T22:23:54.017Z,3.73
2018-04-18T22:26:20.606Z,3.70
2018-04-18T22:28:47.188Z,4.17
2018-04-18T22:31:13.765Z,4.20
2018-04-18T22:33:40.359Z,3.60
2018-04-18T22:36:06.932Z,3.90
2018-04-18T22:38:33.529Z,3.80
2018-04-18T22:41:00.120Z,4.07
2018-04-18T22:43:26.684Z,3.97
2018-04-18T22:45:53.294Z,4.07
2018-04-18T22:48:19.852Z,4.87
2018-04-18T22:50:46.445Z,3.97
2018-04-18T22:53:13.023Z,3.63
2018-04-18T22:55:39.612Z,3.83
2018-04-18T22:58:06.188Z,4.10
2018-04-18T23:00:32.775Z,3.70
2018-04-18T23:02:59.356Z,4.10
